createdAt,value
2018-09-28T00:00:14.959Z,97.8
2018-09-28T00:01:14.958Z,97.99
2018-09-28T00:02:15.201Z,97.7
2018-09-28T00:03:15.181Z,97.8
2018-09-28T00:04:14.900Z,97.61
2018-09-28T00:05:14.881Z,97.99
2018-09-28T00:06:15.132Z,97.32
2018-09-28T00:07:15.118Z,97.13
2018-09-28T00:08:15.128Z,97.03
2018-09-28T00:09:14.823Z,97.03
2018-09-28T00:10:15.068Z,96.84
2018-09-28T00:11:15.055Z,96.46
2018-09-28T00:12:14.777Z,95.89
2018-09-28T00:13:14.761Z,95.98
2018-09-28T00:14:15.006Z,95.89
2018-09-28T00:15:14.990Z,95.98
2018-09-28T00:16:14.981Z,96.08
2018-09-28T00:17:14.964Z,96.56
2018-09-28T00:18:14.950Z,96.56
2018-09-28T00:19:14.929Z,96.17
2018-09-28T00:20:14.656Z,95.7
2018-09-28T00:21:14.639Z,95.51
2018-09-28T00:22:14.626Z,95.89
2018-09-28T00:23:14.614Z,95.12
2018-09-28T00:24:14.862Z,94.89
2018-09-28T00:25:14.573Z,94.65
2018-09-28T00:26:14.824Z,94.41
2018-09-28T00:27:14.540Z,94.32
2018-09-28T00:28:14.798Z,94.03
2018-09-28T00:29:14.774Z,93.84
2018-09-28T00:30:14.501Z,93.37
2018-09-28T00:31:14.482Z,93.65
2018-09-28T00:32:14.729Z,93.37
2018-09-28T00:33:14.725Z,93.65
2018-09-28T00:34:14.699Z,93.84
2018-09-28T00:35:14.420Z,93.37
2018-09-28T00:36:14.676Z,93.74
2018-09-28T00:37:14.654Z,92.98
2018-09-28T00:38:14.374Z,93.84
2018-09-28T00:39:14.356Z,93.37
2018-09-28T00:40:14.651Z,93.17
2018-09-28T00:41:14.587Z,92.98
2018-09-28T00:42:14.571Z,93.17
2018-09-28T00:43:14.562Z,93.08
2018-09-28T00:44:14.542Z,92.32
2018-09-28T00:45:14.260Z,91.84
2018-09-28T00:46:14.243Z,92.03
2018-09-28T00:47:14.492Z,92.22
2018-09-28T00:48:14.476Z,91.84
2018-09-28T00:49:14.464Z,91.84
2018-09-28T00:50:14.448Z,91.74
2018-09-28T00:51:14.164Z,92.13
2018-09-28T00:52:14.415Z,91.31
2018-09-28T00:53:14.411Z,90.94
2018-09-28T00:54:14.380Z,90.65
2018-09-28T00:55:14.372Z,90.56
2018-09-28T00:56:14.349Z,90.27
2018-09-28T00:57:14.068Z,90.17
2018-09-28T00:58:14.259Z,90.27
2018-09-28T00:59:14.310Z,90.27
2018-09-28T01:00:14.021Z,89.41
2018-09-28T01:01:14.271Z,88.08
2018-09-28T01:02:13.989Z,88.37
2018-09-28T01:03:14.246Z,87.32
2018-09-28T01:04:13.959Z,87.13
2018-09-28T01:05:13.945Z,86.75
2018-09-28T01:06:13.929Z,86.46
2018-09-28T01:07:14.176Z,86.36
2018-09-28T01:08:13.898Z,85.8
2018-09-28T01:09:13.877Z,85.51
2018-09-28T01:10:14.127Z,83.98
2018-09-28T01:11:14.111Z,83.51
2018-09-28T01:12:14.101Z,83.7
2018-09-28T01:13:14.077Z,82.93
2018-09-28T01:14:14.066Z,83.32
2018-09-28T01:15:14.047Z,82.46
2018-09-28T01:16:14.036Z,81.89
2018-09-28T01:17:13.750Z,81.7
2018-09-28T01:18:13.740Z,81.6
2018-09-28T01:19:13.982Z,82.56
2018-09-28T01:20:13.966Z,81.41
2018-09-28T01:21:13.688Z,81.51
2018-09-28T01:22:13.937Z,80.94
2018-09-28T01:23:13.920Z,80.98
2018-09-28T01:24:13.904Z,80.84
2018-09-28T01:25:13.885Z,80.75
2018-09-28T01:26:13.876Z,81.79
2018-09-28T01:27:13.855Z,81.7
2018-09-28T01:28:13.837Z,81.79
2018-09-28T01:29:13.558Z,81.41
2018-09-28T01:30:13.812Z,80.55
2018-09-28T01:31:13.795Z,79.7
2018-09-28T01:32:13.516Z,79.41
2018-09-28T01:33:13.758Z,80.18
2018-09-28T01:34:13.485Z,79.93
2018-09-28T01:35:13.462Z,80.08
2018-09-28T01:36:13.709Z,80.18
2018-09-28T01:37:13.709Z,80.65
2018-09-28T01:38:13.413Z,80.65
2018-09-28T01:39:13.657Z,80.18
2018-09-28T01:40:13.385Z,80.08
2018-09-28T01:41:13.368Z,79.41
2018-09-28T01:42:13.615Z,79.89
2018-09-28T01:43:13.605Z,79.8
2018-09-28T01:44:13.588Z,80.27
2018-09-28T01:45:13.301Z,80.36
2018-09-28T01:46:13.553Z,80.55
2018-09-28T01:47:13.269Z,80.65
2018-09-28T01:48:13.523Z,80.55
2018-09-28T01:49:13.501Z,79.99
2018-09-28T01:50:13.221Z,79.99
2018-09-28T01:51:13.205Z,79.8
2018-09-28T01:52:13.448Z,79.22
2018-09-28T01:53:13.433Z,77.7
2018-09-28T01:54:13.158Z,77.7
2018-09-28T01:55:13.436Z,77.13
2018-09-28T01:56:13.125Z,77.42
2018-09-28T01:57:13.108Z,77.98
2018-09-28T01:58:13.358Z,78.37
2018-09-28T01:59:13.345Z,78.56
2018-09-28T02:00:13.324Z,77.51
2018-09-28T02:01:13.046Z,77.51
2018-09-28T02:02:13.289Z,77.03
2018-09-28T02:03:13.010Z,77.13
2018-09-28T02:04:13.258Z,77.03
2018-09-28T02:05:13.242Z,76.56
2018-09-28T02:06:12.967Z,76.27
2018-09-28T02:07:12.944Z,76.27
2018-09-28T02:08:13.204Z,76.18
2018-09-28T02:09:13.177Z,76.37
2018-09-28T02:10:13.171Z,76.27
2018-09-28T02:11:12.886Z,75.51
2018-09-28T02:12:13.143Z,75.42
2018-09-28T02:13:13.112Z,74.94
2018-09-28T02:14:12.830Z,74.94
2018-09-28T02:15:13.088Z,74.75
2018-09-28T02:16:13.064Z,74.46
2018-09-28T02:17:13.045Z,74.27
2018-09-28T02:18:12.765Z,74.52
2018-09-28T02:19:13.014Z,74.75
2018-09-28T02:20:12.998Z,74.9
2018-09-28T02:21:12.736Z,74.46
2018-09-28T02:22:12.963Z,74.37
2018-09-28T02:23:12.955Z,74.8
2018-09-28T02:24:12.667Z,74.24
2018-09-28T02:25:12.650Z,73.99
2018-09-28T02:26:12.905Z,73.89
2018-09-28T02:27:12.881Z,73.66
2018-09-28T02:28:12.606Z,72.14
2018-09-28T02:29:12.853Z,72.33
2018-09-28T02:30:12.844Z,72.62
2018-09-28T02:31:12.556Z,72.33
2018-09-28T02:32:12.802Z,72.71
2018-09-28T02:33:12.790Z,71.95
2018-09-28T02:34:12.770Z,72.37
2018-09-28T02:35:12.489Z,71.95
2018-09-28T02:36:12.732Z,72.14
2018-09-28T02:37:12.723Z,71.76
2018-09-28T02:38:12.440Z,71.57
2018-09-28T02:39:12.691Z,70.43
2018-09-28T02:40:12.410Z,70.81
2018-09-28T02:41:12.654Z,69.89
2018-09-28T02:42:12.636Z,69.6
2018-09-28T02:43:12.357Z,68.84
2018-09-28T02:44:12.615Z,67.41
2018-09-28T02:45:12.323Z,65.51
2018-09-28T02:46:12.582Z,63.89
2018-09-28T02:47:12.569Z,63.42
2018-09-28T02:48:12.284Z,62.56
2018-09-28T02:49:12.257Z,62.27
2018-09-28T02:50:12.514Z,61.22
2018-09-28T02:51:12.498Z,58.84
2018-09-28T02:52:12.477Z,59.35
2018-09-28T02:53:12.537Z,60.21
2018-09-28T02:54:12.437Z,59.74
2018-09-28T02:55:12.161Z,60.02
2018-09-28T02:56:12.414Z,59.74
2018-09-28T02:57:12.133Z,60.97
2018-09-28T02:58:12.580Z,60.97
2018-09-28T02:59:12.367Z,60.78
2018-09-28T03:00:12.342Z,60.59
2018-09-28T03:01:12.067Z,61.16
2018-09-28T03:02:12.072Z,61.48
2018-09-28T03:03:12.310Z,61.67
2018-09-28T03:04:12.295Z,62.81
2018-09-28T03:05:12.001Z,62.81
2018-09-28T03:06:12.409Z,64.62
2018-09-28T03:07:11.968Z,64.43
2018-09-28T03:08:12.217Z,64.43
2018-09-28T03:09:12.202Z,64.43
2018-09-28T03:10:11.924Z,64.24
2018-09-28T03:11:11.910Z,63.86
2018-09-28T03:12:11.893Z,64.62
2018-09-28T03:13:12.139Z,66.15
2018-09-28T03:14:11.857Z,66.91
2018-09-28T03:15:12.108Z,67.48
2018-09-28T03:16:12.102Z,68.44
2018-09-28T03:17:11.810Z,68.82
2018-09-28T03:18:12.065Z,68.82
2018-09-28T03:19:12.045Z,68.91
2018-09-28T03:20:11.778Z,69.58
2018-09-28T03:21:11.754Z,70.57
2018-09-28T03:22:11.737Z,70.38
2018-09-28T03:23:11.994Z,71.14
2018-09-28T03:24:11.768Z,71.43
2018-09-28T03:25:11.956Z,72.19
2018-09-28T03:26:11.940Z,72.67
2018-09-28T03:27:11.930Z,72.67
2018-09-28T03:28:11.908Z,72.67
2018-09-28T03:29:11.624Z,73.52
2018-09-28T03:30:11.878Z,72.96
2018-09-28T03:31:11.863Z,72.57
2018-09-28T03:32:11.854Z,72.76
2018-09-28T03:33:11.831Z,72.76
2018-09-28T03:34:11.551Z,72.19
2018-09-28T03:35:11.796Z,72.57
2018-09-28T03:36:11.779Z,72
2018-09-28T03:37:11.774Z,72.86
2018-09-28T03:38:11.486Z,72.96
2018-09-28T03:39:11.734Z,72.76
2018-09-28T03:40:11.734Z,73.05
2018-09-28T03:41:11.703Z,74.01
2018-09-28T03:42:11.688Z,74.67
2018-09-28T03:43:11.676Z,74.38
2018-09-28T03:44:11.400Z,74.57
2018-09-28T03:45:11.378Z,74.57
2018-09-28T03:46:11.371Z,74.38
2018-09-28T03:47:11.615Z,74.57
2018-09-28T03:48:11.342Z,75.24
2018-09-28T03:49:11.586Z,74.67
2018-09-28T03:50:11.571Z,75.91
2018-09-28T03:51:11.551Z,76.1
2018-09-28T03:52:11.280Z,75.91
2018-09-28T03:53:11.263Z,75.81
2018-09-28T03:54:11.241Z,77.06
2018-09-28T03:55:11.227Z,77.62
2018-09-28T03:56:11.213Z,78.01
2018-09-28T03:57:11.195Z,78.01
2018-09-28T03:58:11.181Z,78.3
2018-09-28T03:59:11.432Z,78.01
2018-09-28T04:00:11.411Z,79.25
2018-09-28T04:01:11.400Z,79.25
2018-09-28T04:02:11.385Z,79.06
2018-09-28T04:03:11.105Z,79.67
2018-09-28T04:04:11.358Z,79.53
2018-09-28T04:05:11.075Z,80.15
2018-09-28T04:06:11.065Z,80.15
2018-09-28T04:07:11.303Z,78.91
2018-09-28T04:08:11.294Z,79.77
2018-09-28T04:09:11.282Z,80.33
2018-09-28T04:10:11.258Z,79.86
2018-09-28T04:11:11.250Z,79.67
2018-09-28T04:12:11.233Z,79.67
2018-09-28T04:13:11.220Z,79.38
2018-09-28T04:14:11.199Z,79.48
2018-09-28T04:15:11.384Z,79.86
2018-09-28T04:16:11.175Z,79.38
2018-09-28T04:17:11.156Z,79.67
2018-09-28T04:18:11.146Z,78.72
2018-09-28T04:19:11.155Z,78.14
2018-09-28T04:20:11.128Z,78.91
2018-09-28T04:21:11.101Z,78.23
2018-09-28T04:22:10.825Z,79.28
2018-09-28T04:23:11.067Z,79.1
2018-09-28T04:24:11.051Z,79.19
2018-09-28T04:25:11.040Z,79
2018-09-28T04:26:10.765Z,79.67
2018-09-28T04:27:10.745Z,78.33
2018-09-28T04:28:10.734Z,78.43
2018-09-28T04:29:10.980Z,78.91
2018-09-28T04:30:10.959Z,78.91
2018-09-28T04:31:10.684Z,79
2018-09-28T04:32:10.931Z,78.43
2018-09-28T04:33:10.653Z,78.52
2018-09-28T04:34:10.903Z,78.62
2018-09-28T04:35:10.888Z,77.67
2018-09-28T04:36:10.609Z,78.62
2018-09-28T04:37:10.857Z,78.33
2018-09-28T04:38:10.842Z,77.95
2018-09-28T04:39:10.569Z,78.05
2018-09-28T04:40:10.812Z,78.52
2018-09-28T04:41:10.792Z,77.76
2018-09-28T04:42:10.522Z,78.23
2018-09-28T04:43:10.509Z,77.47
2018-09-28T04:44:10.757Z,77.67
2018-09-28T04:45:10.493Z,77.19
2018-09-28T04:46:10.724Z,77.28
2018-09-28T04:47:10.445Z,77.38
2018-09-28T04:48:10.690Z,77.28
2018-09-28T04:49:10.673Z,77.19
2018-09-28T04:50:10.398Z,77.09
2018-09-28T04:51:10.385Z,77.09
2018-09-28T04:52:10.631Z,76.9
2018-09-28T04:53:10.618Z,76.81
2018-09-28T04:54:10.335Z,77.09
2018-09-28T04:55:10.322Z,75.81
2018-09-28T04:56:10.306Z,76.14
2018-09-28T04:57:10.560Z,75.76
2018-09-28T04:58:10.546Z,75.66
2018-09-28T04:59:10.258Z,76.42
2018-09-28T05:00:10.513Z,74.42
2018-09-28T05:01:10.497Z,75.57
2018-09-28T05:02:10.478Z,75.76
2018-09-28T05:03:10.467Z,75.76
2018-09-28T05:04:10.458Z,75.76
2018-09-28T05:05:10.175Z,75.57
2018-09-28T05:06:10.159Z,75.85
2018-09-28T05:07:10.140Z,74.99
2018-09-28T05:08:10.391Z,75.57
2018-09-28T05:09:10.112Z,75.09
2018-09-28T05:10:10.364Z,75.37
2018-09-28T05:11:10.351Z,75.47
2018-09-28T05:12:10.334Z,74.32
2018-09-28T05:13:10.135Z,73.56
2018-09-28T05:14:10.040Z,73.37
2018-09-28T05:15:10.025Z,74.04
2018-09-28T05:16:10.272Z,74.42
2018-09-28T05:17:10.257Z,74.8
2018-09-28T05:18:09.981Z,74.52
2018-09-28T05:19:10.235Z,73.56
2018-09-28T05:20:09.956Z,73.28
2018-09-28T05:21:10.197Z,73.75
2018-09-28T05:22:10.185Z,74.42
2018-09-28T05:23:09.905Z,73.85
2018-09-28T05:24:10.163Z,73.66
2018-09-28T05:25:09.902Z,73.28
2018-09-28T05:26:09.860Z,72.42
2018-09-28T05:27:10.107Z,72.71
2018-09-28T05:28:09.828Z,71.84
2018-09-28T05:29:10.075Z,72.03
2018-09-28T05:30:09.796Z,71.66
2018-09-28T05:31:10.202Z,71.84
2018-09-28T05:32:10.317Z,71.94
2018-09-28T05:33:10.207Z,72.61
2018-09-28T05:34:10.105Z,71.66
2018-09-28T05:35:09.987Z,72.32
2018-09-28T05:36:09.712Z,72.51
2018-09-28T05:37:09.761Z,71.37
2018-09-28T05:38:09.679Z,71.27
2018-09-28T05:39:09.663Z,72.23
2018-09-28T05:40:09.914Z,72.23
2018-09-28T05:41:09.635Z,71.84
2018-09-28T05:42:09.902Z,72.03
2018-09-28T05:43:09.870Z,71.84
2018-09-28T05:44:09.857Z,70.7
2018-09-28T05:45:09.579Z,69.27
2018-09-28T05:46:09.849Z,69.27
2018-09-28T05:47:09.544Z,69.93
2018-09-28T05:48:09.531Z,69.08
2018-09-28T05:49:09.842Z,67.83
2018-09-28T05:50:09.505Z,68.06
2018-09-28T05:51:09.757Z,66.25
2018-09-28T05:52:09.486Z,66.06
2018-09-28T05:53:09.456Z,65.39
2018-09-28T05:54:09.445Z,65.48
2018-09-28T05:55:09.428Z,65.3
2018-09-28T05:56:09.414Z,65.1
2018-09-28T05:57:09.400Z,64.91
2018-09-28T05:58:09.652Z,64.91
2018-09-28T05:59:09.634Z,64.43
2018-09-28T06:00:09.632Z,65.01
2018-09-28T06:01:09.603Z,65.3
2018-09-28T06:02:09.590Z,65.58
2018-09-28T06:03:09.573Z,65.58
2018-09-28T06:04:09.558Z,66.06
2018-09-28T06:05:09.547Z,65.48
2018-09-28T06:06:09.532Z,65.39
2018-09-28T06:07:09.518Z,65.3
2018-09-28T06:08:09.236Z,65.48
2018-09-28T06:09:09.494Z,65.1
2018-09-28T06:10:09.207Z,65.1
2018-09-28T06:11:09.457Z,63.67
2018-09-28T06:12:09.445Z,63.76
2018-09-28T06:13:09.168Z,61.57
2018-09-28T06:14:09.150Z,62.05
2018-09-28T06:15:09.139Z,61.38
2018-09-28T06:16:09.383Z,60.9
2018-09-28T06:17:09.107Z,60.9
2018-09-28T06:18:09.094Z,60.42
2018-09-28T06:19:09.385Z,59.09
2018-09-28T06:20:09.071Z,59.76
2018-09-28T06:21:09.310Z,60.33
2018-09-28T06:22:09.300Z,59.85
2018-09-28T06:23:09.280Z,59.47
2018-09-28T06:24:09.431Z,59.47
2018-09-28T06:25:08.990Z,59.76
2018-09-28T06:26:09.237Z,57.94
2018-09-28T06:27:09.231Z,58.23
2018-09-28T06:28:08.960Z,58.04
2018-09-28T06:29:09.198Z,57.28
2018-09-28T06:30:08.933Z,57.75
2018-09-28T06:31:08.903Z,57.87
2018-09-28T06:32:08.891Z,58.73
2018-09-28T06:33:09.144Z,57.94
2018-09-28T06:34:08.862Z,58.33
2018-09-28T06:35:08.844Z,56.16
2018-09-28T06:36:08.832Z,57.21
2018-09-28T06:37:09.076Z,55.46
2018-09-28T06:38:09.102Z,55.87
2018-09-28T06:39:08.815Z,55.96
2018-09-28T06:40:08.771Z,54.53
2018-09-28T06:41:08.758Z,54.63
2018-09-28T06:42:09.222Z,53.1
2018-09-28T06:43:09.026Z,53
2018-09-28T06:44:08.984Z,52.34
2018-09-28T06:45:08.704Z,51.76
2018-09-28T06:46:08.955Z,50.33
2018-09-28T06:47:08.678Z,49.18
2018-09-28T06:48:08.975Z,47.94
2018-09-28T06:49:08.907Z,48.13
2018-09-28T06:50:08.632Z,48.42
2018-09-28T06:51:09.005Z,47.56
2018-09-28T06:52:08.866Z,46.99
2018-09-28T06:53:08.847Z,44.98
2018-09-28T06:54:08.935Z,45.48
2018-09-28T06:55:08.823Z,44.51
2018-09-28T06:56:08.813Z,43.95
2018-09-28T06:57:08.796Z,44.43
2018-09-28T06:58:08.823Z,44.05
2018-09-28T06:59:08.977Z,42.24
2018-09-28T07:00:08.828Z,41.75
2018-09-28T07:01:08.739Z,41.09
2018-09-28T07:02:08.462Z,41.38
2018-09-28T07:03:08.449Z,41.09
2018-09-28T07:04:08.529Z,41.38
2018-09-28T07:05:08.419Z,41.38
2018-09-28T07:06:08.775Z,40.32
2018-09-28T07:07:08.659Z,40.23
2018-09-28T07:08:08.376Z,39.08
2018-09-28T07:09:08.364Z,38.79
2018-09-28T07:10:08.618Z,38.79
2018-09-28T07:11:08.336Z,39.65
2018-09-28T07:12:08.352Z,39.84
2018-09-28T07:13:08.310Z,40.13
2018-09-28T07:14:08.291Z,41.28
2018-09-28T07:15:08.550Z,41.66
2018-09-28T07:16:08.640Z,43.09
2018-09-28T07:17:08.516Z,44.15
2018-09-28T07:18:08.276Z,44.53
2018-09-28T07:19:08.495Z,43.66
2018-09-28T07:20:08.243Z,44.24
2018-09-28T07:21:08.201Z,44.53
2018-09-28T07:22:08.451Z,46.37
2018-09-28T07:23:08.167Z,48.75
2018-09-28T07:24:08.509Z,50.45
2018-09-28T07:25:08.539Z,50.48
2018-09-28T07:26:08.389Z,52.1
2018-09-28T07:27:08.114Z,53.06
2018-09-28T07:28:08.363Z,57.07
2018-09-28T07:29:08.351Z,57.17
2018-09-28T07:30:08.507Z,57.17
2018-09-28T07:31:08.057Z,57.84
2018-09-28T07:32:08.047Z,57.65
2018-09-28T07:33:08.033Z,57.55
2018-09-28T07:34:08.282Z,57.65
2018-09-28T07:35:08.003Z,59.37
2018-09-28T07:36:08.244Z,58.8
2018-09-28T07:37:08.730Z,59.37
2018-09-28T07:38:07.964Z,62.81
2018-09-28T07:39:07.951Z,62.14
2018-09-28T07:40:08.197Z,61.28
2018-09-28T07:41:07.921Z,61.76
2018-09-28T07:42:07.927Z,60.99
2018-09-28T07:43:07.895Z,60.9
2018-09-28T07:44:07.878Z,61.28
2018-09-28T07:45:08.134Z,64.05
2018-09-28T07:46:07.858Z,64.53
2018-09-28T07:47:08.103Z,64.53
2018-09-28T07:48:08.227Z,64.25
2018-09-28T07:49:08.247Z,64.53
2018-09-28T07:50:07.797Z,64.15
2018-09-28T07:51:08.049Z,64.91
2018-09-28T07:52:08.037Z,66.54
2018-09-28T07:53:08.018Z,66.35
2018-09-28T07:54:08.005Z,66.35
2018-09-28T07:55:07.992Z,66.63
2018-09-28T07:56:07.732Z,66.73
2018-09-28T07:57:08.016Z,66.16
2018-09-28T07:58:07.953Z,66.54
2018-09-28T07:59:07.680Z,66.63
2018-09-28T08:00:07.660Z,68.55
2018-09-28T08:01:07.912Z,68.45
2018-09-28T08:02:07.898Z,67.02
2018-09-28T08:03:07.619Z,66.92
2018-09-28T08:04:07.614Z,67.21
2018-09-28T08:05:07.857Z,67.49
2018-09-28T08:06:07.843Z,66.54
2018-09-28T08:07:07.569Z,67.88
2018-09-28T08:08:07.553Z,66.63
2018-09-28T08:09:07.809Z,66.16
2018-09-28T08:10:07.524Z,65.39
2018-09-28T08:11:07.771Z,66.35
2018-09-28T08:12:07.760Z,64.91
2018-09-28T08:13:07.483Z,62.62
2018-09-28T08:14:07.739Z,65.39
2018-09-28T08:15:07.456Z,65.68
2018-09-28T08:16:07.706Z,66.54
2018-09-28T08:17:07.693Z,66.44
2018-09-28T08:18:07.416Z,66.16
2018-09-28T08:19:07.672Z,65.87
2018-09-28T08:20:07.655Z,64.82
2018-09-28T08:21:07.638Z,65.2
2018-09-28T08:22:07.363Z,63.96
2018-09-28T08:23:07.348Z,64.62
2018-09-28T08:24:07.607Z,65.11
2018-09-28T08:25:07.323Z,65.3
2018-09-28T08:26:07.631Z,63.86
2018-09-28T08:27:07.562Z,63.86
2018-09-28T08:28:07.281Z,64.82
2018-09-28T08:29:07.539Z,63
2018-09-28T08:30:07.252Z,59.47
2018-09-28T08:31:07.240Z,61.19
2018-09-28T08:32:07.489Z,57.36
2018-09-28T08:33:07.217Z,55.07
2018-09-28T08:34:07.469Z,55.45
2018-09-28T08:35:07.189Z,55.45
2018-09-28T08:36:07.236Z,52.2
2018-09-28T08:37:07.426Z,52.39
2018-09-28T08:38:07.412Z,52.01
2018-09-28T08:39:07.403Z,50.76
2018-09-28T08:40:07.124Z,52.67
2018-09-28T08:41:07.109Z,51.62
2018-09-28T08:42:07.107Z,51.05
2018-09-28T08:43:07.350Z,50.67
2018-09-28T08:44:07.335Z,50.86
2018-09-28T08:45:07.325Z,49.43
2018-09-28T08:46:07.042Z,49.8
2018-09-28T08:47:07.028Z,48.66
2018-09-28T08:48:07.018Z,49.14
2018-09-28T08:49:07.335Z,47.99
2018-09-28T08:50:06.991Z,49.62
2018-09-28T08:51:06.973Z,50.57
2018-09-28T08:52:06.965Z,50.09
2018-09-28T08:53:07.214Z,50
2018-09-28T08:54:06.938Z,51.12
2018-09-28T08:55:06.924Z,52.39
2018-09-28T08:56:07.173Z,51.41
2018-09-28T08:57:06.894Z,53.99
2018-09-28T08:58:07.149Z,55.8
2018-09-28T08:59:07.337Z,56.57
2018-09-28T09:00:06.856Z,55.04
2018-09-28T09:01:07.105Z,55.42
2018-09-28T09:02:06.887Z,57.53
2018-09-28T09:03:07.092Z,58.76
2018-09-28T09:04:06.804Z,57.14
2018-09-28T09:05:06.789Z,55.61
2018-09-28T09:06:07.041Z,55.3
2018-09-28T09:07:07.032Z,52.43
2018-09-28T09:08:07.013Z,50.71
2018-09-28T09:09:07.000Z,44.6
2018-09-28T09:10:06.987Z,44.02
2018-09-28T09:11:06.717Z,42.88
2018-09-28T09:12:06.691Z,40.4
2018-09-28T09:13:06.680Z,40.88
2018-09-28T09:14:06.926Z,39.35
2018-09-28T09:15:06.648Z,37.63
2018-09-28T09:16:06.899Z,36
2018-09-28T09:17:06.624Z,36.1
2018-09-28T09:18:06.620Z,33.91
2018-09-28T09:19:06.864Z,34.67
2018-09-28T09:20:06.857Z,33.52
2018-09-28T09:21:06.833Z,34.27
2018-09-28T09:22:06.552Z,33.89
2018-09-28T09:23:06.546Z,32.07
2018-09-28T09:24:06.521Z,30.74
2018-09-28T09:25:06.774Z,30.66
2018-09-28T09:26:06.494Z,30.16
2018-09-28T09:27:06.750Z,30.46
2018-09-28T09:28:06.487Z,31.21
2018-09-28T09:29:06.768Z,32.07
2018-09-28T09:30:06.467Z,33.62
2018-09-28T09:31:06.421Z,35.7
2018-09-28T09:32:06.674Z,36.46
2018-09-28T09:33:06.671Z,37.61
2018-09-28T09:34:06.649Z,38.28
2018-09-28T09:35:06.631Z,39.64
2018-09-28T09:36:06.615Z,39.35
2018-09-28T09:37:06.336Z,41.74
2018-09-28T09:38:06.583Z,41.74
2018-09-28T09:39:06.572Z,42.02
2018-09-28T09:40:06.291Z,42.31
2018-09-28T09:41:06.278Z,44.41
2018-09-28T09:42:06.527Z,45.75
2018-09-28T09:43:06.251Z,46.42
2018-09-28T09:44:06.504Z,47.18
2018-09-28T09:45:06.485Z,48.42
2018-09-28T09:46:06.206Z,48.61
2018-09-28T09:47:06.760Z,48.99
2018-09-28T09:48:06.186Z,49.47
2018-09-28T09:49:06.430Z,49.18
2018-09-28T09:50:06.418Z,49.57
2018-09-28T09:51:06.140Z,49.66
2018-09-28T09:52:06.122Z,50.14
2018-09-28T09:53:06.376Z,49.47
2018-09-28T09:54:06.103Z,49.47
2018-09-28T09:55:06.104Z,49.78
2018-09-28T09:56:06.079Z,52.36
2018-09-28T09:57:06.062Z,52.65
2018-09-28T09:58:06.100Z,53.89
2018-09-28T09:59:06.290Z,53.22
2018-09-28T10:00:06.272Z,52.08
2018-09-28T10:01:05.998Z,53.03
2018-09-28T10:02:05.985Z,52.94
2018-09-28T10:03:05.971Z,57.33
2018-09-28T10:04:06.229Z,57.81
2018-09-28T10:05:05.941Z,61.72
2018-09-28T10:06:05.926Z,66.5
2018-09-28T10:07:05.913Z,64.78
2018-09-28T10:08:06.162Z,63.64
2018-09-28T10:09:06.152Z,63.64
2018-09-28T10:10:06.140Z,63.76
2018-09-28T10:11:05.863Z,66.44
2018-09-28T10:12:06.120Z,67.59
2018-09-28T10:13:06.102Z,68.26
2018-09-28T10:14:06.089Z,68.93
2018-09-28T10:15:06.078Z,68.16
2018-09-28T10:16:06.057Z,67.88
2018-09-28T10:17:06.043Z,67.59
2018-09-28T10:18:06.025Z,69.41
2018-09-28T10:19:05.805Z,68.93
2018-09-28T10:20:05.736Z,73.23
2018-09-28T10:21:06.001Z,73.71
2018-09-28T10:22:05.711Z,75.24
2018-09-28T10:23:05.702Z,76.2
2018-09-28T10:24:05.950Z,76.2
2018-09-28T10:25:05.934Z,75.91
2018-09-28T10:26:05.663Z,77.67
2018-09-28T10:27:06.053Z,77.67
2018-09-28T10:28:06.019Z,80.11
2018-09-28T10:29:05.885Z,80.92
2018-09-28T10:30:05.606Z,80.16
2018-09-28T10:31:05.858Z,80.63
2018-09-28T10:32:05.845Z,82.17
2018-09-28T10:33:05.835Z,79.87
2018-09-28T10:34:05.826Z,77.86
2018-09-28T10:35:05.805Z,76.23
2018-09-28T10:36:05.794Z,84.27
2018-09-28T10:37:05.777Z,84.84
2018-09-28T10:38:05.498Z,87.14
2018-09-28T10:39:05.799Z,87.62
2018-09-28T10:40:05.790Z,85.13
2018-09-28T10:41:05.542Z,83.83
2018-09-28T10:42:05.717Z,84.75
2018-09-28T10:43:05.435Z,84.88
2018-09-28T10:44:05.423Z,85.46
2018-09-28T10:45:05.682Z,88.23
2018-09-28T10:46:05.664Z,94.26
2018-09-28T10:47:05.650Z,94.26
2018-09-28T10:48:05.377Z,95.7
2018-09-28T10:49:05.637Z,96.75
2018-09-28T10:50:05.615Z,94.07
2018-09-28T10:51:05.339Z,95.98
2018-09-28T10:52:06.140Z,95.61
2018-09-28T10:53:05.746Z,95.89
2018-09-28T10:54:05.561Z,96.66
2018-09-28T10:55:05.285Z,96.37
2018-09-28T10:56:05.269Z,99.99
2018-09-28T10:57:05.535Z,99.99
2018-09-28T10:58:05.515Z,99.52
2018-09-28T10:59:05.233Z,99.99
2018-09-28T11:00:05.225Z,99.99
2018-09-28T11:01:05.210Z,98.95
2018-09-28T11:02:05.463Z,99.99
2018-09-28T11:03:05.458Z,99.99
2018-09-28T11:04:05.444Z,99.99
2018-09-28T11:05:05.161Z,99.99
2018-09-28T11:06:05.422Z,99.99
2018-09-28T11:07:05.137Z,99.99
2018-09-28T11:08:05.123Z,99.99
2018-09-28T11:09:05.611Z,99.99
2018-09-28T11:10:05.104Z,99.99
2018-09-28T11:11:05.399Z,99.99
2018-09-28T11:12:05.080Z,99.99
2018-09-28T11:13:05.339Z,99.99
2018-09-28T11:14:05.318Z,99.99
2018-09-28T11:15:05.037Z,99.99
2018-09-28T11:16:05.292Z,99.99
2018-09-28T11:17:05.283Z,99.99
2018-09-28T11:18:05.270Z,99.99
2018-09-28T11:19:05.333Z,99.99
2018-09-28T11:20:04.981Z,99.99
2018-09-28T11:21:05.238Z,99.99
2018-09-28T11:22:05.220Z,99.99
2018-09-28T11:23:05.220Z,99.99
2018-09-28T11:24:04.929Z,99.99
2018-09-28T11:25:05.186Z,99.99
2018-09-28T11:26:05.171Z,99.99
2018-09-28T11:27:05.159Z,99.99
2018-09-28T11:28:04.880Z,99.99
2018-09-28T11:29:04.872Z,99.99
2018-09-28T11:30:04.860Z,99.99
2018-09-28T11:31:04.850Z,99.99
2018-09-28T11:32:05.103Z,99.99
2018-09-28T11:33:05.088Z,99.99
2018-09-28T11:34:04.814Z,99.99
2018-09-28T11:35:05.090Z,99.99
2018-09-28T11:36:05.075Z,99.99
2018-09-28T11:37:05.049Z,99.99
2018-09-28T11:38:05.035Z,99.99
2018-09-28T11:39:05.028Z,99.99
2018-09-28T11:40:05.016Z,99.99
2018-09-28T11:41:04.737Z,99.99
2018-09-28T11:42:04.991Z,99.99
2018-09-28T11:43:05.001Z,99.99
2018-09-28T11:44:04.966Z,99.99
2018-09-28T11:45:04.958Z,99.99
2018-09-28T11:46:04.683Z,99.99
2018-09-28T11:47:04.986Z,99.99
2018-09-28T11:48:04.925Z,99.99
2018-09-28T11:49:05.023Z,99.99
2018-09-28T11:50:04.909Z,99.99
2018-09-28T11:51:04.630Z,99.99
2018-09-28T11:52:04.631Z,99.99
2018-09-28T11:53:04.613Z,99.99
2018-09-28T11:54:04.601Z,99.99
2018-09-28T11:55:04.595Z,99.99
2018-09-28T11:56:04.577Z,99.99
2018-09-28T11:57:04.839Z,99.99
2018-09-28T11:58:04.830Z,99.99
2018-09-28T11:59:04.814Z,99.99
2018-09-28T12:00:04.857Z,99.99
2018-09-28T12:01:04.799Z,99.99
2018-09-28T12:02:04.811Z,99.99
2018-09-28T12:03:04.511Z,99.99
2018-09-28T12:04:04.512Z,99.99
2018-09-28T12:05:04.543Z,99.99
2018-09-28T12:06:04.484Z,99.99
2018-09-28T12:07:04.480Z,99.99
2018-09-28T12:08:04.732Z,99.99
2018-09-28T12:09:04.457Z,99.99
2018-09-28T12:10:04.445Z,99.99
2018-09-28T12:11:04.532Z,95.98
2018-09-28T12:12:04.695Z,98.05
2018-09-28T12:13:04.422Z,97.38
2018-09-28T12:14:04.414Z,94.01
2018-09-28T12:15:04.665Z,93.05
2018-09-28T12:16:04.395Z,88.73
2018-09-28T12:17:04.655Z,88.3
2018-09-28T12:18:04.639Z,83.49
2018-09-28T12:19:04.635Z,85.13
2018-09-28T12:20:04.363Z,86.66
2018-09-28T12:21:04.630Z,87.48
2018-09-28T12:22:04.345Z,83.44
2018-09-28T12:23:04.334Z,78.15
2018-09-28T12:24:04.598Z,77.67
2018-09-28T12:25:04.591Z,79.11
2018-09-28T12:26:04.580Z,80.61
2018-09-28T12:27:04.570Z,80.04
2018-09-28T12:28:04.298Z,83.87
2018-09-28T12:29:04.291Z,82.59
2018-09-28T12:30:04.282Z,81.86
2018-09-28T12:31:04.555Z,80.9
2018-09-28T12:32:04.534Z,79.61
2018-09-28T12:33:04.528Z,80.28
2018-09-28T12:34:04.524Z,80.96
2018-09-28T12:35:04.509Z,84.22
2018-09-28T12:36:04.250Z,84.7
2018-09-28T12:37:04.229Z,84.7
2018-09-28T12:38:04.488Z,86.14
2018-09-28T12:39:04.244Z,89.12
2018-09-28T12:40:04.742Z,86.68
2018-09-28T12:41:04.466Z,84.75
2018-09-28T12:42:04.461Z,88.74
2018-09-28T12:43:04.182Z,89.03
2018-09-28T12:44:04.437Z,91.77
2018-09-28T12:45:04.261Z,95.98
2018-09-28T12:46:04.154Z,99.15
2018-09-28T12:47:04.146Z,99.53
2018-09-28T12:48:04.136Z,99.99
2018-09-28T12:49:04.133Z,99.58
2018-09-28T12:50:04.122Z,99.99
2018-09-28T12:51:04.375Z,99.99
2018-09-28T12:52:04.363Z,99.99
2018-09-28T12:53:04.359Z,99.99
2018-09-28T12:54:04.343Z,99.99
2018-09-28T12:55:04.067Z,99.99